Domov               UVHVVR             MKGP            O straneh              
ZDRAVSTVENO VARSTVO RASTLIN
  MREŽA AGROMET. POSTAJ
 ► PROGNOSTIČNA OBVESTILA
AGROMETEOROLOŠKI PODATKI -
ARSO
OBVLADOVANJE TVEGANJ ZARADI
NEUGODNIH VREMENSKIH RAZMER
  ► NARAVNE NESREČE
  ► SUŠA/MOČA
  ► NAMAKANJE
  ► ŽLED (gozdarstvo)
KARTOGRAFSKI PRIKAZI
SPLETNE POVEZAVE
PROJEKTI IN PUBLIKACIJE

AGROMETEOROLOŠKA MREŽA: VREMENSKE POSTAJE IN FENOLOŠKA OPAZOVANJA

Pregled podatkov za lokacijo Črnova (Gradišnik), meteorološka postaja 22213

Pregled senzorjev na lokaciji

ID Ime Zadnja
vrednost
Datum
zadnje
spremembe
Tip
senzorja
4194 Temperatura 2 m ( °C) 12,09 °C 17.10.2017 23:30 Generic -40 - +60 °C
4195 Relativna vlaga 2 m (% RH) 93,94 % RH 17.10.2017 23:30 Generic 0 - 100 %
4196 Omočenost lista (U) 0 U 17.10.2017 23:30 A730WET
4197 Padavine 0.2 mm (mm) 0 mm 17.10.2017 23:30 Generic 0.2 mm
4198 RF IN (µV) 255 µV 17.10.2017 23:59 Diagnostic RTU
4199 RF OUT (µV) 218 µV 17.10.2017 23:59 Diagnostic RTU

Pregled podatkov zadnjih 24 ur

Zap.
št.
Datum in čas Črnova (Gradišnik)
Omočenost
lista
Padavine
0.2
mm
Relativna
vlaga
2
m
RF
IN
RF
OUT
Temperatura
2
m
0 17.10.2017 22:30 0 0 93,94 255 219 12,09
1 17.10.2017 22:00 0 0 93,11 12,38
2 17.10.2017 21:30 0 0 90,31 255 218 13,14
3 17.10.2017 21:00 0 0 89,82 255 218 13,55
4 17.10.2017 20:30 0 0 89,72 255 218 13,68
5 17.10.2017 20:00 0 0 87,01 255 218 14,26
6 17.10.2017 19:30 0 0 84,57 255 218 14,82
7 17.10.2017 19:00 0 0 81,03 255 216 15,58
8 17.10.2017 18:30 0 0 78,07 255 218 16,36
9 17.10.2017 18:00 0 0 72,99 255 216 17,34
10 17.10.2017 17:30 0 0 68,86 255 214,5 17,88
11 17.10.2017 17:00 0 0 63,64 255 216 18,8
12 17.10.2017 16:30 0 0 60,63 255 213 20,12
13 17.10.2017 16:00 0 0 60,29 255 213 21,12
14 17.10.2017 15:30 0 0 58,71 255 213 21,83
15 17.10.2017 15:00 0 0 55,38 255 211 22,56
16 17.10.2017 14:30 0 0 50,92 255 212 22,98
17 17.10.2017 14:00 0 0 50,11 23
18 17.10.2017 13:30 0 0 51,18 255 208 22,86
19 17.10.2017 13:00 0 0 50,06 255 208 23,37
20 17.10.2017 12:30 0 0 47,3 255 213 23,13
21 17.10.2017 12:00 0 0 47,08 255 211 23
22 17.10.2017 11:30 0 0 47,47 255 212 23,59
23 17.10.2017 11:00 0 0 48,11 255 213 22,86
24 17.10.2017 10:30 0 0 46,64 255 213 21,76
25 17.10.2017 10:00 0 0 48,06 255 213 21,17
26 17.10.2017 09:30 0 0 51,53 255 216 19,39
27 17.10.2017 09:00 0 0 57,26 255 213 18,14
28 17.10.2017 08:30 0 0 64,93 255 216 15,8
29 17.10.2017 08:00 0 0 67,52 255 216 14,58
30 17.10.2017 07:30 0 0 71,21 255 216 13,46
31 17.10.2017 07:00 0 0 73,33 255 220 12,87
32 17.10.2017 06:30 0 0 74,24 255 218 12,97
33 17.10.2017 06:00 0 0 78,68 255 220 12,31
34 17.10.2017 05:30 0 0 81,47 255 216 12,01
35 17.10.2017 05:00 0 0 80,37 255 208 12,45
36 17.10.2017 04:30 0 0 81,27 255 220 12,53
37 17.10.2017 04:00 0 0 81,29 255 216 12,77
38 17.10.2017 03:30 0 0 84 255 220 12,41
39 17.10.2017 03:00 0 0 83,22 12,7
40 17.10.2017 02:30 0 0 84,49 255 223 12,58
41 17.10.2017 02:00 0 0 84,13 255 216 12,84
42 17.10.2017 01:30 0 0 92,28 255 216 11,28
43 17.10.2017 01:00 0 0 92,94 255 218 11,01
44 17.10.2017 00:30 0 0 89,11 255 223 11,67
© 2011 Ministrstvo za kmetijstvo, gozdarstvo in prehrano. Vse pravice pridržane.